createdAt,value
2022-12-18T00:02:13.959Z,53.05
2022-12-18T00:04:40.488Z,55.47
2022-12-18T00:07:07.027Z,55.40
2022-12-18T00:09:39.785Z,54.77
2022-12-18T00:14:42.885Z,60.97
2022-12-18T00:17:09.360Z,60.88
2022-12-18T00:19:35.999Z,52.40
2022-12-18T00:22:02.424Z,47.23
2022-12-18T00:24:28.851Z,53.80
2022-12-18T00:26:55.271Z,61.20
2022-12-18T00:29:21.716Z,60.33
2022-12-18T00:31:48.228Z,48.75
2022-12-18T00:34:15.098Z,50.80
2022-12-18T00:36:42.418Z,53.58
2022-12-18T00:39:11.327Z,51.47
2022-12-18T00:41:56.309Z,48.20
2022-12-18T00:44:22.804Z,50.08
2022-12-18T00:46:49.329Z,40.47
2022-12-18T00:49:18.716Z,42.70
2022-12-18T00:51:46.215Z,50.15
2022-12-18T00:54:12.721Z,41.83
2022-12-18T00:56:48.251Z,52.25
2022-12-18T00:59:15.991Z,49.77
2022-12-18T01:01:42.605Z,47.70
2022-12-18T01:04:09.289Z,48.63
2022-12-18T01:06:36.154Z,49.97
2022-12-18T01:09:03.163Z,55.22
2022-12-18T01:11:29.707Z,53.83
2022-12-18T01:13:56.376Z,50.90
2022-12-18T01:16:23.735Z,49.85
2022-12-18T01:18:53.633Z,58.63
2022-12-18T01:21:20.494Z,55.13
2022-12-18T01:23:47.552Z,48.50
2022-12-18T01:26:16.475Z,51.22
2022-12-18T01:28:44.748Z,47.50
2022-12-18T01:31:15.727Z,48.50
2022-12-18T01:33:42.337Z,53.83
2022-12-18T01:36:09.919Z,52.37
2022-12-18T01:38:36.351Z,53.80
2022-12-18T01:41:03.087Z,41.95
2022-12-18T01:44:01.771Z,50.20
2022-12-18T01:46:28.797Z,46.90
2022-12-18T01:48:58.790Z,51.97
2022-12-18T01:51:27.413Z,55.20
2022-12-18T01:53:53.884Z,51.28
2022-12-18T01:56:22.035Z,52.95
2022-12-18T01:58:54.573Z,47.67
2022-12-18T02:01:24.654Z,47.90
2022-12-18T02:03:52.329Z,46.40
2022-12-18T02:06:33.800Z,64.57
2022-12-18T02:09:10.810Z,42.33
2022-12-18T02:12:11.596Z,41.92
2022-12-18T02:14:59.728Z,52.33
2022-12-18T02:17:40.844Z,47.25
2022-12-18T02:20:30.781Z,47.60
2022-12-18T02:23:20.968Z,44.20
2022-12-18T02:26:12.464Z,46.38
2022-12-18T02:28:54.079Z,42.80
2022-12-18T02:31:27.447Z,41.40
2022-12-18T02:33:57.467Z,44.97
2022-12-18T02:36:26.488Z,41.75
2022-12-18T02:38:54.628Z,48.67
2022-12-18T02:41:22.729Z,49.10
2022-12-18T02:43:50.427Z,45.78
2022-12-18T02:46:37.936Z,41.88
2022-12-18T02:49:25.477Z,48.35
2022-12-18T02:52:01.913Z,46.60
2022-12-18T02:54:46.413Z,41.70
2022-12-18T02:57:36.129Z,41.67
2022-12-18T03:00:11.384Z,40.55
2022-12-18T03:03:08.914Z,40.78
2022-12-18T03:05:41.224Z,34.33
2022-12-18T03:08:14.058Z,42.50
2022-12-18T03:10:46.768Z,36.28
2022-12-18T03:13:20.064Z,42.38
2022-12-18T03:15:54.031Z,41.53
2022-12-18T03:18:46.832Z,36.85
2022-12-18T03:21:17.083Z,36.73
2022-12-18T03:23:50.816Z,36.03
2022-12-18T03:26:25.695Z,30.70
2022-12-18T03:29:00.690Z,27.75
2022-12-18T03:31:31.817Z,34.08
2022-12-18T03:34:06.591Z,40.83
2022-12-18T03:36:33.131Z,31.17
2022-12-18T03:38:59.768Z,33.85
2022-12-18T03:41:54.703Z,26.70
2022-12-18T03:44:37.697Z,28.20
2022-12-18T03:47:21.611Z,26.40
2022-12-18T03:50:09.585Z,29.58
2022-12-18T03:52:41.822Z,35.50
2022-12-18T03:55:10.124Z,27.75
2022-12-18T03:57:37.935Z,29.50
2022-12-18T04:00:16.361Z,29.07
2022-12-18T04:02:48.946Z,28.77
2022-12-18T04:05:16.744Z,29.67
2022-12-18T04:07:44.876Z,26.33
2022-12-18T04:10:13.245Z,26.00
2022-12-18T04:12:39.692Z,26.03
2022-12-18T04:15:07.399Z,24.25
2022-12-18T04:17:33.809Z,28.30
2022-12-18T04:20:00.260Z,24.52
2022-12-18T04:22:26.683Z,29.13
2022-12-18T04:24:53.136Z,28.70
2022-12-18T04:27:19.758Z,25.42
2022-12-18T04:29:46.196Z,30.15
2022-12-18T04:32:12.620Z,26.52
2022-12-18T04:34:39.104Z,25.10
2022-12-18T04:37:05.527Z,25.83
2022-12-18T04:39:32.038Z,27.25
2022-12-18T04:41:58.464Z,24.40
2022-12-18T04:44:24.931Z,27.60
2022-12-18T04:46:51.412Z,23.42
2022-12-18T04:49:17.897Z,24.90
2022-12-18T04:51:44.340Z,23.70
2022-12-18T04:54:10.758Z,28.23
2022-12-18T04:56:37.232Z,29.92
2022-12-18T04:59:03.643Z,24.58
2022-12-18T05:01:34.536Z,24.83
2022-12-18T05:04:02.616Z,23.42
2022-12-18T05:06:29.136Z,26.67
2022-12-18T05:08:55.928Z,26.45
2022-12-18T05:11:22.600Z,22.77
2022-12-18T05:13:49.111Z,22.27
2022-12-18T05:16:15.779Z,28.08
2022-12-18T05:18:42.978Z,26.98
2022-12-18T05:21:09.719Z,27.17
2022-12-18T05:23:37.011Z,23.73
2022-12-18T05:26:06.071Z,26.20
2022-12-18T05:28:34.833Z,28.00
2022-12-18T05:31:03.255Z,24.52
2022-12-18T05:33:32.721Z,22.45
2022-12-18T05:36:04.248Z,28.77
2022-12-18T05:38:32.313Z,21.70
2022-12-18T05:40:59.203Z,25.70
2022-12-18T05:43:27.222Z,23.00
2022-12-18T05:45:55.201Z,20.70
2022-12-18T05:48:22.312Z,24.55
2022-12-18T05:50:51.168Z,22.93
2022-12-18T05:53:19.187Z,22.45
2022-12-18T05:55:46.383Z,23.13
2022-12-18T05:58:14.359Z,21.77
2022-12-18T06:00:45.905Z,22.85
2022-12-18T06:03:13.548Z,23.07
2022-12-18T06:05:42.763Z,22.80
2022-12-18T06:08:09.754Z,22.52
2022-12-18T06:10:36.423Z,21.58
2022-12-18T06:13:02.920Z,25.25
2022-12-18T06:15:29.323Z,25.17
2022-12-18T06:17:55.776Z,18.35
2022-12-18T06:20:22.435Z,23.52
2022-12-18T06:22:49.187Z,23.42
2022-12-18T06:25:16.312Z,22.00
2022-12-18T06:27:43.023Z,21.80
2022-12-18T06:30:10.933Z,22.00
2022-12-18T06:32:37.424Z,20.65
2022-12-18T06:35:04.795Z,21.13
2022-12-18T06:37:32.505Z,20.63
2022-12-18T06:39:58.999Z,22.70
2022-12-18T06:42:25.810Z,20.27
2022-12-18T06:44:52.308Z,22.75
2022-12-18T06:47:19.391Z,20.98
2022-12-18T06:49:45.842Z,22.27
2022-12-18T06:52:12.282Z,20.87
2022-12-18T06:54:38.784Z,19.85
2022-12-18T06:57:05.236Z,26.73
2022-12-18T06:59:31.688Z,21.05
2022-12-18T07:01:58.310Z,24.73
2022-12-18T07:04:32.647Z,22.43
2022-12-18T07:06:59.062Z,20.92
2022-12-18T07:09:25.699Z,22.10
2022-12-18T07:11:53.283Z,22.38
2022-12-18T07:14:19.791Z,24.73
2022-12-18T07:16:46.350Z,20.63
2022-12-18T07:19:12.915Z,21.40
2022-12-18T07:21:39.569Z,21.88
2022-12-18T07:24:06.724Z,20.30
2022-12-18T07:26:33.205Z,22.45
2022-12-18T07:28:59.817Z,22.13
2022-12-18T07:31:27.434Z,21.25
2022-12-18T07:33:54.547Z,19.83
2022-12-18T07:36:23.833Z,20.90
2022-12-18T07:38:51.182Z,21.83
2022-12-18T07:41:18.121Z,19.10
2022-12-18T07:43:44.901Z,20.00
2022-12-18T07:46:14.678Z,23.80
2022-12-18T07:48:42.875Z,20.17
2022-12-18T07:51:11.171Z,22.65
2022-12-18T07:53:38.074Z,21.67
2022-12-18T07:58:54.394Z,21.67
2022-12-18T08:01:21.365Z,20.50
2022-12-18T08:03:48.108Z,19.75
2022-12-18T08:06:14.992Z,21.33
2022-12-18T08:08:43.170Z,20.77
2022-12-18T08:11:10.678Z,22.67
2022-12-18T08:13:37.388Z,21.13
2022-12-18T08:16:07.126Z,22.40
2022-12-18T08:18:35.229Z,23.17
2022-12-18T08:21:16.942Z,21.83
2022-12-18T08:23:44.180Z,19.90
2022-12-18T08:26:12.428Z,23.25
2022-12-18T08:28:39.660Z,23.92
2022-12-18T08:31:06.735Z,30.77
2022-12-18T08:33:34.526Z,27.77
2022-12-18T08:36:01.351Z,24.88
2022-12-18T08:38:28.255Z,27.35
2022-12-18T08:41:02.628Z,21.17
2022-12-18T08:43:47.775Z,21.90
2022-12-18T08:46:14.336Z,26.65
2022-12-18T08:48:40.877Z,22.67
2022-12-18T08:51:07.672Z,28.00
2022-12-18T08:53:35.819Z,27.83
2022-12-18T08:56:02.856Z,30.00
2022-12-18T08:58:29.434Z,25.55
2022-12-18T09:01:01.034Z,26.00
2022-12-18T09:03:27.595Z,23.50
2022-12-18T09:05:54.051Z,23.25
2022-12-18T09:08:20.625Z,25.93
2022-12-18T09:10:49.588Z,23.75
2022-12-18T09:13:17.120Z,24.52
2022-12-18T09:15:46.309Z,25.92
2022-12-18T09:18:14.121Z,21.83
2022-12-18T09:20:40.936Z,43.10
2022-12-18T09:23:08.411Z,32.08
2022-12-18T09:25:36.756Z,23.48
2022-12-18T09:28:05.496Z,21.35
2022-12-18T09:30:34.263Z,20.35
2022-12-18T09:33:01.884Z,20.20
2022-12-18T09:35:28.858Z,24.52
2022-12-18T09:37:55.435Z,21.77
2022-12-18T09:40:26.097Z,21.75
2022-12-18T09:43:01.610Z,23.42
2022-12-18T09:45:31.404Z,21.77
2022-12-18T09:47:58.575Z,20.02
2022-12-18T09:50:33.663Z,21.67
2022-12-18T09:53:06.872Z,20.58
2022-12-18T09:55:41.283Z,19.70
2022-12-18T09:58:17.317Z,19.53
2022-12-18T10:00:44.152Z,18.98
2022-12-18T10:03:15.447Z,22.30
2022-12-18T10:06:01.414Z,18.20
2022-12-18T10:09:20.323Z,20.30
2022-12-18T10:11:46.724Z,17.43
2022-12-18T10:14:30.869Z,20.30
2022-12-18T10:17:18.460Z,20.77
2022-12-18T10:19:52.322Z,22.45
2022-12-18T10:22:36.777Z,20.33
2022-12-18T10:25:15.095Z,21.43
2022-12-18T10:27:41.831Z,19.58
2022-12-18T10:30:21.954Z,18.75
2022-12-18T10:32:48.395Z,20.92
2022-12-18T10:35:22.558Z,18.48
2022-12-18T10:38:00.620Z,22.60
2022-12-18T10:40:27.404Z,20.42
2022-12-18T10:43:15.459Z,21.23
2022-12-18T10:45:43.159Z,19.48
2022-12-18T10:48:21.943Z,20.95
2022-12-18T10:53:38.188Z,23.85
2022-12-18T10:56:07.166Z,19.77
2022-12-18T10:58:36.576Z,22.38
2022-12-18T11:01:07.652Z,20.00
2022-12-18T11:03:41.702Z,24.30
2022-12-18T11:06:22.703Z,22.27
2022-12-18T11:09:21.824Z,22.17
2022-12-18T11:11:54.477Z,18.63
2022-12-18T11:14:33.279Z,22.92
2022-12-18T11:19:55.205Z,24.90
2022-12-18T11:22:33.413Z,23.33
2022-12-18T11:25:30.856Z,24.80
2022-12-18T11:27:51.273Z,23.85
2022-12-18T11:30:20.688Z,28.80
2022-12-18T11:32:51.993Z,22.23
2022-12-18T11:35:23.017Z,32.35
2022-12-18T11:38:00.143Z,19.00
2022-12-18T11:40:40.834Z,23.42
2022-12-18T11:43:39.056Z,33.87
2022-12-18T11:46:17.629Z,24.95
2022-12-18T11:49:29.194Z,25.55
2022-12-18T11:51:55.619Z,19.20
2022-12-18T11:54:22.129Z,21.58
2022-12-18T11:57:10.292Z,24.20
2022-12-18T12:00:15.951Z,23.25
2022-12-18T12:03:02.130Z,26.63
2022-12-18T12:05:51.020Z,33.30
2022-12-18T12:08:28.132Z,21.15
2022-12-18T12:11:11.264Z,24.83
2022-12-18T12:14:14.668Z,21.45
2022-12-18T12:16:47.121Z,19.90
2022-12-18T12:19:25.471Z,20.38
2022-12-18T12:22:16.243Z,18.13
2022-12-18T12:25:20.480Z,20.70
2022-12-18T12:27:54.434Z,22.40
2022-12-18T12:30:26.650Z,22.98
2022-12-18T12:33:05.787Z,21.75
2022-12-18T12:35:58.268Z,22.05
2022-12-18T12:38:35.031Z,19.40
2022-12-18T12:41:06.293Z,19.80
2022-12-18T12:46:41.605Z,21.48
2022-12-18T12:49:16.523Z,19.70
2022-12-18T12:51:48.687Z,18.37
2022-12-18T12:54:22.334Z,20.05
2022-12-18T12:57:20.999Z,21.50
2022-12-18T13:00:06.175Z,19.17
2022-12-18T13:02:51.968Z,19.45
2022-12-18T13:05:26.961Z,19.13
2022-12-18T13:08:10.340Z,21.77
2022-12-18T13:10:38.958Z,20.88
2022-12-18T13:13:09.182Z,17.33
2022-12-18T13:13:43.289Z,22.15
2022-12-18T13:15:46.778Z,19.40
2022-12-18T13:18:19.679Z,19.50
2022-12-18T13:20:53.155Z,18.20
2022-12-18T13:23:24.689Z,26.67
2022-12-18T13:25:55.881Z,17.60
2022-12-18T13:28:34.549Z,18.50
2022-12-18T13:31:02.559Z,22.67
2022-12-18T13:34:01.967Z,22.38
2022-12-18T13:36:34.527Z,24.17
2022-12-18T13:39:34.101Z,31.45
2022-12-18T13:42:07.227Z,18.45
2022-12-18T13:44:41.613Z,23.93
2022-12-18T13:47:29.373Z,44.70
2022-12-18T13:49:56.075Z,21.48
2022-12-18T13:52:26.330Z,27.90
2022-12-18T13:54:56.138Z,25.63
2022-12-18T13:57:41.672Z,54.57
2022-12-18T14:00:23.431Z,23.52
2022-12-18T14:02:51.343Z,46.13
2022-12-18T14:05:35.189Z,46.50
2022-12-18T14:08:06.905Z,29.30
2022-12-18T14:10:47.921Z,46.17
2022-12-18T14:13:41.292Z,23.90
2022-12-18T14:16:09.046Z,55.67
2022-12-18T14:19:04.116Z,31.80
2022-12-18T14:21:47.360Z,23.95
2022-12-18T14:24:22.516Z,20.67
2022-12-18T14:26:50.778Z,21.73
2022-12-18T14:29:29.165Z,28.65
2022-12-18T14:32:18.681Z,17.85
2022-12-18T14:34:50.904Z,21.88
2022-12-18T14:37:22.657Z,23.13
2022-12-18T14:39:57.932Z,19.40
2022-12-18T14:42:28.870Z,20.67
2022-12-18T14:45:37.434Z,19.48
2022-12-18T14:48:09.829Z,20.90
2022-12-18T14:50:37.996Z,20.00
2022-12-18T14:53:09.022Z,20.70
2022-12-18T14:55:35.635Z,21.05
2022-12-18T14:58:02.791Z,20.60
2022-12-18T15:00:29.280Z,26.75
2022-12-18T15:02:57.921Z,20.13
2022-12-18T15:05:30.565Z,24.65
2022-12-18T15:08:00.104Z,23.98
2022-12-18T15:10:32.565Z,26.00
2022-12-18T15:13:00.809Z,26.75
2022-12-18T15:15:40.229Z,22.13
2022-12-18T15:18:09.641Z,21.10
2022-12-18T15:20:45.043Z,22.67
2022-12-18T15:23:21.730Z,22.08
2022-12-18T15:25:55.226Z,20.60
2022-12-18T15:28:39.063Z,20.80
2022-12-18T15:31:09.866Z,20.55
2022-12-18T15:33:39.983Z,25.48
2022-12-18T15:36:12.475Z,19.65
2022-12-18T15:38:38.960Z,24.95
2022-12-18T15:41:24.863Z,25.63
2022-12-18T15:43:53.220Z,21.80
2022-12-18T15:46:22.813Z,22.30
2022-12-18T15:48:53.555Z,21.80
2022-12-18T15:51:23.094Z,21.70
2022-12-18T15:53:52.648Z,22.87
2022-12-18T15:56:37.848Z,29.42
2022-12-18T15:59:13.500Z,21.42
2022-12-18T16:01:42.827Z,25.30
2022-12-18T16:04:13.099Z,23.17
2022-12-18T16:06:58.069Z,21.70
2022-12-18T16:09:26.386Z,22.95
2022-12-18T16:11:53.365Z,24.65
2022-12-18T16:14:28.992Z,23.83
2022-12-18T16:16:58.064Z,22.35
2022-12-18T16:19:25.330Z,23.07
2022-12-18T16:21:54.016Z,20.17
2022-12-18T16:24:26.091Z,23.10
2022-12-18T16:26:54.113Z,26.60
2022-12-18T16:29:28.018Z,27.38
2022-12-18T16:31:59.078Z,20.60
2022-12-18T16:34:32.874Z,20.40
2022-12-18T16:37:05.884Z,24.13
2022-12-18T16:39:35.018Z,23.75
2022-12-18T16:42:09.654Z,24.27
2022-12-18T16:44:36.450Z,27.83
2022-12-18T16:47:04.303Z,28.90
2022-12-18T16:49:31.594Z,27.40
2022-12-18T16:51:58.144Z,26.38
2022-12-18T16:54:25.133Z,23.30
2022-12-18T16:56:52.313Z,21.97
2022-12-18T16:59:19.859Z,24.08
2022-12-18T17:01:46.871Z,37.13
2022-12-18T17:04:13.564Z,27.58
2022-12-18T17:06:43.084Z,26.20
2022-12-18T17:09:14.964Z,31.30
2022-12-18T17:11:41.880Z,29.95
2022-12-18T17:14:10.761Z,27.92
2022-12-18T17:16:37.252Z,36.30
2022-12-18T17:19:05.144Z,37.35
2022-12-18T17:21:31.788Z,28.30
2022-12-18T17:24:01.320Z,34.58
2022-12-18T17:26:28.155Z,34.92
2022-12-18T17:28:57.699Z,36.30
2022-12-18T17:31:26.202Z,28.77
2022-12-18T17:33:53.570Z,30.60
2022-12-18T17:36:21.320Z,26.45
2022-12-18T17:38:57.141Z,34.95
2022-12-18T17:41:24.882Z,29.55
2022-12-18T17:43:56.351Z,30.08
2022-12-18T17:46:23.397Z,29.27
2022-12-18T17:48:50.086Z,29.38
2022-12-18T17:51:17.935Z,29.58
2022-12-18T17:53:44.827Z,26.92
2022-12-18T17:56:17.166Z,28.08
2022-12-18T17:58:44.187Z,39.40
2022-12-18T18:01:13.827Z,28.25
2022-12-18T18:03:42.876Z,37.97
2022-12-18T18:06:09.913Z,24.90
2022-12-18T18:08:37.549Z,32.90
2022-12-18T18:11:28.226Z,27.67
2022-12-18T18:14:00.801Z,37.97
2022-12-18T18:16:35.097Z,35.75
2022-12-18T18:19:07.357Z,38.08
2022-12-18T18:21:35.087Z,29.98
2022-12-18T18:24:03.116Z,30.97
2022-12-18T18:26:31.866Z,31.73
2022-12-18T18:29:00.063Z,31.25
2022-12-18T18:31:30.809Z,27.65
2022-12-18T18:33:57.941Z,37.97
2022-12-18T18:36:24.610Z,36.43
2022-12-18T18:38:52.000Z,93.97
2022-12-18T18:41:18.928Z,100.22
2022-12-18T18:43:45.454Z,46.25
2022-12-18T18:46:14.066Z,62.20
2022-12-18T18:48:42.999Z,37.67
2022-12-18T18:51:21.174Z,41.55
2022-12-18T18:53:49.955Z,28.05
2022-12-18T18:59:05.234Z,30.35
2022-12-18T19:01:31.938Z,23.93
2022-12-18T19:03:58.682Z,26.58
2022-12-18T19:06:27.735Z,28.35
2022-12-18T19:08:55.643Z,32.83
2022-12-18T19:11:42.401Z,25.33
2022-12-18T19:14:11.721Z,24.70
2022-12-18T19:16:38.911Z,24.00
2022-12-18T19:19:05.715Z,32.55
2022-12-18T19:21:34.603Z,28.17
2022-12-18T19:24:02.454Z,28.08
2022-12-18T19:26:29.237Z,27.93
2022-12-18T19:29:04.521Z,25.88
2022-12-18T19:31:35.517Z,30.75
2022-12-18T19:34:03.785Z,28.60
2022-12-18T19:36:31.233Z,28.35
2022-12-18T19:38:59.899Z,27.90
2022-12-18T19:41:29.048Z,30.27
2022-12-18T19:43:55.824Z,29.75
2022-12-18T19:46:23.306Z,30.50
2022-12-18T19:48:50.555Z,26.48
2022-12-18T19:51:18.343Z,25.73
2022-12-18T19:53:45.401Z,26.45
2022-12-18T19:56:15.057Z,30.80
2022-12-18T19:58:42.255Z,24.60
2022-12-18T20:01:10.277Z,30.17
2022-12-18T20:03:38.943Z,29.30
2022-12-18T20:06:12.794Z,29.30
2022-12-18T20:08:40.040Z,28.65
2022-12-18T20:11:07.266Z,28.67
2022-12-18T20:13:34.552Z,29.40
2022-12-18T20:16:01.232Z,32.40
2022-12-18T20:18:27.914Z,38.88
2022-12-18T20:20:55.196Z,31.30
2022-12-18T20:23:24.504Z,32.10
2022-12-18T20:25:54.600Z,35.25
2022-12-18T20:28:22.542Z,33.87
2022-12-18T20:30:49.125Z,29.42
2022-12-18T20:33:16.221Z,32.08
2022-12-18T20:35:43.376Z,35.42
2022-12-18T20:38:10.427Z,40.83
2022-12-18T20:40:41.412Z,38.63
2022-12-18T20:43:11.301Z,37.40
2022-12-18T20:45:41.335Z,31.83
2022-12-18T20:48:09.556Z,37.00
2022-12-18T20:50:36.353Z,35.85
2022-12-18T20:53:02.860Z,33.77
2022-12-18T20:55:29.375Z,35.47
2022-12-18T20:57:55.959Z,31.10
2022-12-18T21:00:22.693Z,32.15
2022-12-18T21:02:49.303Z,33.97
2022-12-18T21:05:15.900Z,35.57
2022-12-18T21:07:42.322Z,32.17
2022-12-18T21:10:09.300Z,41.03
2022-12-18T21:12:42.833Z,33.25
2022-12-18T21:15:28.589Z,37.55
2022-12-18T21:17:55.458Z,36.23
2022-12-18T21:20:21.893Z,34.47
2022-12-18T21:22:49.397Z,37.97
2022-12-18T21:25:15.963Z,34.22
2022-12-18T21:27:42.389Z,31.90
2022-12-18T21:30:09.417Z,31.70
2022-12-18T21:32:35.863Z,33.03
2022-12-18T21:35:02.376Z,34.20
2022-12-18T21:37:28.837Z,35.92
2022-12-18T21:39:55.332Z,34.80
2022-12-18T21:42:48.056Z,40.57
2022-12-18T21:45:14.612Z,34.45
2022-12-18T21:47:41.058Z,36.97
2022-12-18T21:50:07.770Z,36.20
2022-12-18T21:52:34.214Z,39.40
2022-12-18T21:55:08.343Z,32.30
2022-12-18T21:57:35.571Z,34.97
2022-12-18T22:00:02.951Z,36.47
2022-12-18T22:02:29.698Z,34.47
2022-12-18T22:04:56.354Z,41.17
2022-12-18T22:07:22.996Z,33.30
2022-12-18T22:09:50.632Z,32.42
2022-12-18T22:12:35.167Z,38.65
2022-12-18T22:15:04.387Z,39.97
2022-12-18T22:17:30.957Z,41.35
2022-12-18T22:19:57.606Z,33.63
2022-12-18T22:22:24.271Z,35.70
2022-12-18T22:24:50.728Z,38.55
2022-12-18T22:27:17.149Z,35.10
2022-12-18T22:30:02.290Z,38.13
2022-12-18T22:32:30.769Z,34.10
2022-12-18T22:35:04.870Z,35.22
2022-12-18T22:37:32.804Z,37.55
2022-12-18T22:39:59.187Z,31.35
2022-12-18T22:42:29.437Z,45.13
2022-12-18T22:44:55.898Z,35.57
2022-12-18T22:47:25.395Z,34.95
2022-12-18T22:49:55.775Z,35.75
2022-12-18T22:52:22.209Z,35.08
2022-12-18T22:54:51.194Z,37.85
2022-12-18T22:57:20.315Z,36.57
2022-12-18T22:59:46.736Z,37.10
2022-12-18T23:02:13.366Z,32.95
2022-12-18T23:04:39.934Z,36.10
2022-12-18T23:07:06.505Z,33.53
2022-12-18T23:09:33.313Z,33.00
2022-12-18T23:12:00.677Z,39.65
2022-12-18T23:14:28.509Z,34.97
2022-12-18T23:16:55.152Z,33.60
2022-12-18T23:19:23.467Z,42.08
2022-12-18T23:21:50.650Z,40.83
2022-12-18T23:24:17.092Z,37.13
2022-12-18T23:26:43.643Z,36.15
2022-12-18T23:29:10.178Z,32.45
2022-12-18T23:31:38.870Z,36.17
2022-12-18T23:34:07.985Z,36.30
2022-12-18T23:36:45.827Z,36.95
2022-12-18T23:39:19.243Z,44.72
2022-12-18T23:41:57.717Z,40.85
2022-12-18T23:44:24.300Z,36.42
2022-12-18T23:46:50.890Z,40.53
2022-12-18T23:49:17.417Z,42.78
2022-12-18T23:51:43.863Z,37.95
2022-12-18T23:54:10.547Z,35.70
2022-12-18T23:56:36.989Z,40.47
2022-12-18T23:59:03.535Z,44.30
